Time;durP1;ratioP1;P1;durP2;ratioP2;P2;SDS_P1;SDS_P2;PMS_P1;PMS_P2;Temp;Humidity;BMP_temperature;BMP_pressure;BME280_temperature;BME280_humidity;BME280_pressure;Samples;Min_cycle;Max_cycle;Signal;HPM_P1;HPM_P2
2023/04/27 00:00:09;;;;;;;14.95;6.93;;;;;;;;;;5046954;28;20047;-72
2023/04/27 00:02:36;;;;;;;18.15;8.10;;;;;;;;;;5048341;28;20037;-72
2023/04/27 00:05:02;;;;;;;15.02;8.07;;;;;;;;;;5048277;28;20529;-72
2023/04/27 00:07:27;;;;;;;16.02;7.55;;;;;;;;;;5045711;28;20032;-71
2023/04/27 00:09:53;;;;;;;13.07;7.38;;;;;;;;;;5077533;28;20040;-72
2023/04/27 00:12:18;;;;;;;17.08;7.78;;;;;;;;;;5047162;28;20044;-72
2023/04/27 00:14:44;;;;;;;15.75;7.18;;;;;;;;;;5047568;28;20136;-71
2023/04/27 00:17:09;;;;;;;11.27;7.22;;;;;;;;;;5048262;28;20024;-72
2023/04/27 00:19:35;;;;;;;14.65;7.20;;;;;;;;;;5046189;28;20033;-72
2023/04/27 00:22:00;;;;;;;14.48;7.10;;;;;;;;;;5045547;28;20044;-71
2023/04/27 00:24:26;;;;;;;14.82;7.00;;;;;;;;;;5046771;28;20045;-71
2023/04/27 00:26:51;;;;;;;13.60;7.00;;;;;;;;;;5047358;28;20135;-71
2023/04/27 00:29:17;;;;;;;13.55;6.65;;;;;;;;;;5048563;28;20025;-71
2023/04/27 00:31:42;;;;;;;14.05;6.95;;;;;;;;;;5047344;28;20495;-71
2023/04/27 00:34:07;;;;;;;14.60;6.22;;;;;;;;;;5047515;28;20047;-71
2023/04/27 00:36:33;;;;;;;14.93;7.38;;;;;;;;;;5066722;28;20033;-71
2023/04/27 00:38:59;;;;;;;13.77;6.93;;;;;;;;;;5051785;28;20095;-71
2023/04/27 00:41:24;;;;;;;13.90;6.93;;;;;;;;;;5047835;28;20017;-71
2023/04/27 00:43:50;;;;;;;15.20;7.10;;;;;;;;;;5050151;28;20414;-71
2023/04/27 00:46:16;;;;;;;17.45;6.95;;;;;;;;;;5051189;28;20041;-71
2023/04/27 00:48:42;;;;;;;13.68;6.60;;;;;;;;;;5051336;28;20044;-71
2023/04/27 00:51:07;;;;;;;14.38;6.25;;;;;;;;;;5047185;28;20036;-72
2023/04/27 00:53:34;;;;;;;12.00;6.47;;;;;;;;;;5047412;28;20028;-71
2023/04/27 00:56:00;;;;;;;16.27;6.63;;;;;;;;;;5046494;28;20025;-71
2023/04/27 00:58:25;;;;;;;12.90;6.65;;;;;;;;;;5046096;28;20044;-71
2023/04/27 01:00:51;;;;;;;11.73;5.80;;;;;;;;;;5047101;28;20049;-72
2023/04/27 01:03:16;;;;;;;17.02;6.75;;;;;;;;;;5046845;28;20111;-71
2023/04/27 01:05:42;;;;;;;15.05;6.80;;;;;;;;;;5046732;28;20857;-71
2023/04/27 01:08:08;;;;;;;15.18;6.65;;;;;;;;;;5047402;28;20025;-71
2023/04/27 01:10:33;;;;;;;14.88;6.50;;;;;;;;;;5046604;28;20033;-71
2023/04/27 01:12:59;;;;;;;14.38;6.07;;;;;;;;;;5046910;28;20044;-71
2023/04/27 01:15:24;;;;;;;14.98;6.82;;;;;;;;;;5046035;28;20684;-71
2023/04/27 01:17:56;;;;;;;12.63;6.53;;;;;;;;;;5045344;28;20534;-71
2023/04/27 01:20:23;;;;;;;12.32;6.38;;;;;;;;;;5045145;28;20045;-71
2023/04/27 01:22:48;;;;;;;14.20;6.50;;;;;;;;;;5037627;28;20082;-71
2023/04/27 01:25:14;;;;;;;12.90;6.40;;;;;;;;;;5076182;28;20033;-71
2023/04/27 01:27:39;;;;;;;12.43;6.07;;;;;;;;;;5046435;28;20033;-71
2023/04/27 01:30:05;;;;;;;15.00;5.95;;;;;;;;;;5041558;28;20037;-71
2023/04/27 01:32:31;;;;;;;13.63;6.82;;;;;;;;;;5025857;28;20022;-71
2023/04/27 01:34:56;;;;;;;16.40;7.63;;;;;;;;;;5038378;28;20021;-72
2023/04/27 01:37:22;;;;;;;14.18;6.07;;;;;;;;;;5065934;28;20094;-71
2023/04/27 01:39:47;;;;;;;13.60;6.25;;;;;;;;;;5066092;28;20044;-71
2023/04/27 01:42:12;;;;;;;12.00;6.40;;;;;;;;;;5066293;28;20113;-71
2023/04/27 01:44:38;;;;;;;11.43;6.55;;;;;;;;;;5065906;28;20093;-71
2023/04/27 01:47:03;;;;;;;16.50;6.95;;;;;;;;;;5066915;28;20039;-71
2023/04/27 01:49:29;;;;;;;15.02;6.10;;;;;;;;;;5065871;28;20059;-71
2023/04/27 01:51:54;;;;;;;18.75;6.22;;;;;;;;;;5065894;28;20501;-71
2023/04/27 01:54:19;;;;;;;12.23;6.32;;;;;;;;;;5066274;28;20048;-71
2023/04/27 01:56:45;;;;;;;15.75;6.82;;;;;;;;;;5045426;28;20041;-71
2023/04/27 01:59:10;;;;;;;15.00;6.78;;;;;;;;;;5023519;28;20141;-71
2023/04/27 02:01:35;;;;;;;14.80;6.95;;;;;;;;;;5024200;28;20091;-72
2023/04/27 02:04:01;;;;;;;13.18;6.53;;;;;;;;;;5026258;28;20520;-71
2023/04/27 02:06:26;;;;;;;12.93;6.55;;;;;;;;;;5045955;28;20056;-71
2023/04/27 02:08:52;;;;;;;11.63;6.25;;;;;;;;;;5053158;28;20079;-71
2023/04/27 02:11:17;;;;;;;12.93;6.80;;;;;;;;;;5053497;28;20618;-70
2023/04/27 02:13:42;;;;;;;19.17;6.30;;;;;;;;;;5046626;28;20021;-72
2023/04/27 02:16:08;;;;;;;16.30;7.25;;;;;;;;;;5045145;28;20060;-72
2023/04/27 02:18:34;;;;;;;13.30;6.88;;;;;;;;;;5045797;28;20033;-72
2023/04/27 02:21:00;;;;;;;13.73;6.63;;;;;;;;;;5046221;28;20086;-71
2023/04/27 02:23:25;;;;;;;13.52;6.50;;;;;;;;;;5039580;28;20033;-71
2023/04/27 02:25:51;;;;;;;17.05;6.93;;;;;;;;;;5045396;28;20482;-71
2023/04/27 02:28:16;;;;;;;12.77;6.05;;;;;;;;;;5039788;28;20095;-71
2023/04/27 02:30:42;;;;;;;17.23;7.00;;;;;;;;;;5037834;28;20049;-71
2023/04/27 02:33:07;;;;;;;12.68;6.80;;;;;;;;;;5026174;28;20656;-71
2023/04/27 02:35:32;;;;;;;13.88;6.63;;;;;;;;;;5035522;28;20021;-71
2023/04/27 02:37:58;;;;;;;14.00;6.78;;;;;;;;;;5044076;28;20108;-71
2023/04/27 02:40:24;;;;;;;13.32;6.63;;;;;;;;;;5044379;28;20033;-71
2023/04/27 02:42:49;;;;;;;14.77;7.10;;;;;;;;;;5045384;28;20029;-71
2023/04/27 02:45:15;;;;;;;17.33;6.78;;;;;;;;;;5045144;28;20083;-71
2023/04/27 02:47:40;;;;;;;12.70;7.03;;;;;;;;;;5044383;28;20703;-71
2023/04/27 02:50:06;;;;;;;15.45;7.30;;;;;;;;;;5046044;28;20037;-71
2023/04/27 02:52:32;;;;;;;14.80;7.20;;;;;;;;;;5045572;28;20422;-72
2023/04/27 02:54:57;;;;;;;18.40;7.38;;;;;;;;;;5043752;28;20095;-71
2023/04/27 02:57:23;;;;;;;18.10;6.72;;;;;;;;;;5038017;28;20029;-72
2023/04/27 02:59:48;;;;;;;14.52;6.90;;;;;;;;;;5025647;28;20045;-71
2023/04/27 03:02:13;;;;;;;12.98;6.10;;;;;;;;;;5024514;28;20036;-71
2023/04/27 03:04:39;;;;;;;14.48;6.72;;;;;;;;;;5026012;28;20411;-72
2023/04/27 03:07:04;;;;;;;12.43;6.53;;;;;;;;;;5040859;28;20505;-72
2023/04/27 03:09:29;;;;;;;14.15;6.82;;;;;;;;;;5048948;28;20037;-71
2023/04/27 03:11:55;;;;;;;15.30;6.50;;;;;;;;;;5047547;28;20041;-71
2023/04/27 03:14:22;;;;;;;16.40;6.88;;;;;;;;;;5046853;28;20079;-71
2023/04/27 03:16:47;;;;;;;15.07;7.10;;;;;;;;;;5045052;28;20124;-71
2023/04/27 03:19:12;;;;;;;14.52;6.93;;;;;;;;;;5049046;28;20065;-72
2023/04/27 03:21:38;;;;;;;13.40;7.18;;;;;;;;;;5048843;28;20032;-71
2023/04/27 03:24:04;;;;;;;11.75;6.22;;;;;;;;;;5078101;28;20029;-71
2023/04/27 03:26:29;;;;;;;15.50;6.55;;;;;;;;;;5047666;28;20025;-71
2023/04/27 03:28:54;;;;;;;14.98;6.38;;;;;;;;;;5050071;28;20529;-71
2023/04/27 03:31:20;;;;;;;17.23;7.65;;;;;;;;;;5054382;28;20044;-71
2023/04/27 03:33:45;;;;;;;16.38;6.50;;;;;;;;;;5060970;28;20041;-71
2023/04/27 03:36:11;;;;;;;16.20;7.75;;;;;;;;;;5053814;28;20086;-71
2023/04/27 03:38:37;;;;;;;15.50;6.93;;;;;;;;;;5047655;28;20029;-71
2023/04/27 03:41:02;;;;;;;15.02;7.13;;;;;;;;;;5049363;28;20029;-71
2023/04/27 03:43:28;;;;;;;15.20;7.28;;;;;;;;;;5046544;28;20510;-71
2023/04/27 03:45:53;;;;;;;18.17;7.97;;;;;;;;;;5045530;28;20067;-71
2023/04/27 03:48:19;;;;;;;19.23;7.00;;;;;;;;;;5047803;28;20688;-71
2023/04/27 03:50:45;;;;;;;17.23;7.75;;;;;;;;;;5048614;28;20032;-71
2023/04/27 03:53:11;;;;;;;15.93;6.60;;;;;;;;;;5046044;28;20017;-71
2023/04/27 03:55:38;;;;;;;13.70;6.63;;;;;;;;;;5045144;28;20044;-71
2023/04/27 03:58:03;;;;;;;16.38;7.25;;;;;;;;;;5048547;28;20051;-72
2023/04/27 04:00:28;;;;;;;19.90;7.25;;;;;;;;;;5047979;28;20033;-72
2023/04/27 04:02:54;;;;;;;18.17;6.95;;;;;;;;;;5046631;28;20043;-71
2023/04/27 04:05:19;;;;;;;13.35;6.70;;;;;;;;;;5046336;28;20028;-71
2023/04/27 04:07:45;;;;;;;16.38;7.03;;;;;;;;;;5048173;28;20017;-71
2023/04/27 04:10:10;;;;;;;21.35;7.70;;;;;;;;;;5047849;28;20037;-71
2023/04/27 04:12:36;;;;;;;17.48;7.90;;;;;;;;;;5048067;28;20086;-72
2023/04/27 04:15:04;;;;;;;20.23;7.90;;;;;;;;;;5047250;28;20654;-71
2023/04/27 04:17:30;;;;;;;17.95;7.10;;;;;;;;;;5046723;28;20017;-71
2023/04/27 04:19:55;;;;;;;14.30;6.88;;;;;;;;;;5047338;28;20024;-71
2023/04/27 04:22:20;;;;;;;16.98;7.65;;;;;;;;;;5046144;28;20029;-71
2023/04/27 04:24:46;;;;;;;17.50;6.40;;;;;;;;;;5046524;28;20033;-71
2023/04/27 04:27:11;;;;;;;17.08;7.95;;;;;;;;;;5047541;28;20579;-71
2023/04/27 04:29:38;;;;;;;14.82;6.95;;;;;;;;;;5047857;28;20040;-71
2023/04/27 04:32:03;;;;;;;21.40;8.02;;;;;;;;;;5047959;28;20032;-72
2023/04/27 04:34:29;;;;;;;14.98;7.22;;;;;;;;;;5049286;28;20033;-72
2023/04/27 04:36:56;;;;;;;17.10;7.80;;;;;;;;;;5066519;28;20060;-72
2023/04/27 04:39:22;;;;;;;17.77;7.70;;;;;;;;;;5067337;28;20051;-71
2023/04/27 04:41:48;;;;;;;16.02;7.65;;;;;;;;;;5065641;28;20032;-71
2023/04/27 04:44:14;;;;;;;22.88;7.93;;;;;;;;;;5067953;28;20097;-71
2023/04/27 04:46:40;;;;;;;17.73;7.80;;;;;;;;;;5067128;28;20028;-71
2023/04/27 04:49:06;;;;;;;18.75;8.10;;;;;;;;;;5068170;28;20044;-71
2023/04/27 04:51:31;;;;;;;14.48;6.38;;;;;;;;;;5068535;28;20121;-71
2023/04/27 04:53:56;;;;;;;16.05;7.47;;;;;;;;;;5057534;28;20116;-71
2023/04/27 04:56:22;;;;;;;16.42;6.95;;;;;;;;;;5059946;28;20033;-71
2023/04/27 04:58:47;;;;;;;16.67;7.05;;;;;;;;;;5047777;28;20053;-71
2023/04/27 05:01:12;;;;;;;14.95;7.15;;;;;;;;;;5046483;28;20060;-71
2023/04/27 05:03:38;;;;;;;23.88;8.48;;;;;;;;;;5042785;28;20037;-71
2023/04/27 05:06:03;;;;;;;26.13;9.13;;;;;;;;;;5046987;28;20572;-71
2023/04/27 05:08:29;;;;;;;16.73;7.70;;;;;;;;;;5045612;28;20043;-71
2023/04/27 05:10:54;;;;;;;16.45;7.72;;;;;;;;;;5045870;28;20559;-71
2023/04/27 05:13:20;;;;;;;18.50;7.50;;;;;;;;;;5047007;28;20062;-71
2023/04/27 05:15:45;;;;;;;21.05;7.60;;;;;;;;;;5046887;28;20136;-71
2023/04/27 05:18:11;;;;;;;17.27;7.35;;;;;;;;;;5046496;28;20032;-71
2023/04/27 05:20:37;;;;;;;22.10;8.27;;;;;;;;;;5047158;28;20031;-71
2023/04/27 05:23:03;;;;;;;25.42;9.18;;;;;;;;;;5045931;28;20033;-72
2023/04/27 05:25:32;;;;;;;20.83;8.23;;;;;;;;;;5046693;28;20048;-72
2023/04/27 05:27:58;;;;;;;19.88;8.23;;;;;;;;;;5043866;28;20029;-71
2023/04/27 05:30:24;;;;;;;21.15;8.60;;;;;;;;;;5036464;28;20037;-71
2023/04/27 05:32:49;;;;;;;19.48;8.02;;;;;;;;;;5025332;28;20041;-71
2023/04/27 05:35:15;;;;;;;15.32;7.75;;;;;;;;;;5043868;28;20055;-72
2023/04/27 05:37:40;;;;;;;17.50;7.38;;;;;;;;;;5040569;28;20076;-71
2023/04/27 05:40:08;;;;;;;17.67;7.75;;;;;;;;;;5024210;28;20030;-71
2023/04/27 05:42:34;;;;;;;16.85;7.72;;;;;;;;;;5026828;28;20056;-71
2023/04/27 05:44:59;;;;;;;14.52;7.05;;;;;;;;;;5027175;28;20042;-71
2023/04/27 05:47:25;;;;;;;16.25;7.75;;;;;;;;;;5043496;28;20147;-71
2023/04/27 05:49:51;;;;;;;15.07;7.45;;;;;;;;;;5040328;28;20028;-71
2023/04/27 05:52:18;;;;;;;15.75;7.40;;;;;;;;;;5009408;28;20506;-71
2023/04/27 05:54:47;;;;;;;20.80;7.50;;;;;;;;;;5025549;28;20021;-71
2023/04/27 05:57:13;;;;;;;17.38;6.63;;;;;;;;;;5022808;28;20037;-71
2023/04/27 05:59:39;;;;;;;15.52;7.70;;;;;;;;;;5024047;28;20034;-72
2023/04/27 06:02:04;;;;;;;17.23;8.18;;;;;;;;;;5025837;28;20033;-71
2023/04/27 06:04:31;;;;;;;21.00;7.57;;;;;;;;;;5026741;28;20148;-72
2023/04/27 06:06:57;;;;;;;16.55;7.10;;;;;;;;;;5025596;28;20025;-72
2023/04/27 06:09:22;;;;;;;17.23;8.32;;;;;;;;;;5026579;28;20039;-73
2023/04/27 06:11:47;;;;;;;19.48;9.18;;;;;;;;;;5024833;28;20041;-73
2023/04/27 06:14:13;;;;;;;19.05;8.35;;;;;;;;;;5026623;28;20796;-72
2023/04/27 06:16:39;;;;;;;22.08;8.48;;;;;;;;;;5043781;28;20106;-72
2023/04/27 06:19:05;;;;;;;18.50;8.82;;;;;;;;;;5057298;28;20025;-72
2023/04/27 06:21:32;;;;;;;23.25;10.52;;;;;;;;;;5048881;28;20025;-73
2023/04/27 06:23:58;;;;;;;22.35;8.55;;;;;;;;;;5046289;28;20060;-73
2023/04/27 06:26:23;;;;;;;28.60;9.20;;;;;;;;;;5045395;28;20518;-73
2023/04/27 06:28:48;;;;;;;21.90;9.30;;;;;;;;;;5045150;28;20063;-72
2023/04/27 06:31:14;;;;;;;20.08;9.10;;;;;;;;;;5039861;28;20124;-72
2023/04/27 06:33:40;;;;;;;22.83;9.65;;;;;;;;;;5041441;28;20052;-72
2023/04/27 06:36:05;;;;;;;21.73;8.70;;;;;;;;;;5037570;28;20029;-72
2023/04/27 06:38:31;;;;;;;26.02;9.27;;;;;;;;;;5043877;28;20047;-72
2023/04/27 06:40:56;;;;;;;19.67;8.93;;;;;;;;;;5042913;28;20415;-72
2023/04/27 06:43:22;;;;;;;23.30;9.52;;;;;;;;;;5047455;28;20116;-72
2023/04/27 06:45:47;;;;;;;23.23;9.68;;;;;;;;;;5050086;28;20021;-72
2023/04/27 06:48:12;;;;;;;20.85;8.50;;;;;;;;;;5049363;28;20087;-72
2023/04/27 06:50:38;;;;;;;27.17;9.95;;;;;;;;;;5043046;28;20029;-72
2023/04/27 06:53:03;;;;;;;20.80;6.80;;;;;;;;;;5035991;28;20056;-71
2023/04/27 06:55:29;;;;;;;21.05;8.13;;;;;;;;;;5047060;28;20107;-72
2023/04/27 06:57:54;;;;;;;22.67;10.13;;;;;;;;;;5050261;28;20060;-72
2023/04/27 07:00:20;;;;;;;25.80;10.48;;;;;;;;;;5048261;28;20033;-72
2023/04/27 07:02:45;;;;;;;22.38;9.63;;;;;;;;;;5049630;28;20059;-73
2023/04/27 07:05:11;;;;;;;23.10;10.38;;;;;;;;;;5048943;28;20029;-73
2023/04/27 07:07:36;;;;;;;27.83;10.27;;;;;;;;;;5049432;28;20029;-72
2023/04/27 07:10:02;;;;;;;28.23;9.73;;;;;;;;;;5049693;28;20055;-73
2023/04/27 07:12:28;;;;;;;19.52;8.40;;;;;;;;;;5046229;28;20016;-73
2023/04/27 07:14:54;;;;;;;27.15;10.95;;;;;;;;;;5036480;28;20827;-75
2023/04/27 07:17:20;;;;;;;35.67;11.68;;;;;;;;;;5035745;28;20438;-73
2023/04/27 07:19:45;;;;;;;26.08;10.35;;;;;;;;;;5042555;28;20032;-73
2023/04/27 07:22:11;;;;;;;20.13;8.45;;;;;;;;;;5049501;28;20441;-72
2023/04/27 07:24:36;;;;;;;26.90;10.73;;;;;;;;;;5049273;28;20047;-72
2023/04/27 07:27:02;;;;;;;22.92;10.10;;;;;;;;;;5042139;28;20049;-73
2023/04/27 07:29:29;;;;;;;25.92;10.65;;;;;;;;;;5044047;28;20521;-72
2023/04/27 07:31:54;;;;;;;28.33;11.10;;;;;;;;;;5045854;28;20459;-73
2023/04/27 07:34:20;;;;;;;28.63;11.55;;;;;;;;;;5048104;28;20713;-73
2023/04/27 07:36:45;;;;;;;26.48;10.77;;;;;;;;;;5058908;28;20060;-73
2023/04/27 07:39:11;;;;;;;25.08;10.60;;;;;;;;;;5036415;28;20037;-72
2023/04/27 07:41:36;;;;;;;27.00;11.15;;;;;;;;;;5041046;28;20258;-72
2023/04/27 08:14:58;;;;;;;27.98;12.73;;;;;;;;;;5110364;27;1294992;-74
2023/04/27 08:17:23;;;;;;;29.33;13.10;;;;;;;;;;5138785;27;20030;-73
2023/04/27 08:19:49;;;;;;;23.98;11.50;;;;;;;;;;5125628;27;20031;-71
2023/04/27 08:22:14;;;;;;;24.73;11.77;;;;;;;;;;5104773;27;20052;-72
2023/04/27 08:24:40;;;;;;;137.48;17.05;;;;;;;;;;5094225;28;20411;-72
2023/04/27 08:27:06;;;;;;;35.90;12.52;;;;;;;;;;5101515;28;20258;-71
2023/04/27 08:29:31;;;;;;;22.02;10.95;;;;;;;;;;5097052;28;20047;-73
2023/04/27 08:31:58;;;;;;;21.58;9.80;;;;;;;;;;5090718;28;20032;-72
2023/04/27 08:34:24;;;;;;;22.00;11.15;;;;;;;;;;5099749;28;20023;-72
2023/04/27 08:36:50;;;;;;;28.55;11.95;;;;;;;;;;5098065;28;20050;-71
2023/04/27 08:39:16;;;;;;;28.33;11.45;;;;;;;;;;5104265;28;20032;-69
2023/04/27 08:41:42;;;;;;;20.92;10.63;;;;;;;;;;5106776;28;20059;-72
2023/04/27 08:44:08;;;;;;;24.83;11.57;;;;;;;;;;5109782;28;20028;-71
2023/04/27 08:46:33;;;;;;;30.17;11.27;;;;;;;;;;5099426;28;20415;-72
2023/04/27 08:48:59;;;;;;;20.98;10.77;;;;;;;;;;5082178;28;20493;-72
2023/04/27 08:51:26;;;;;;;24.55;11.25;;;;;;;;;;5089808;28;20042;-72
2023/04/27 08:53:53;;;;;;;19.23;9.65;;;;;;;;;;5096231;28;20136;-72
2023/04/27 08:56:23;;;;;;;24.33;11.65;;;;;;;;;;5101872;28;20115;-73
2023/04/27 08:58:49;;;;;;;21.23;11.02;;;;;;;;;;5100333;28;20100;-72
2023/04/27 09:01:15;;;;;;;23.33;11.90;;;;;;;;;;5102027;28;20410;-73
2023/04/27 09:03:41;;;;;;;23.95;11.63;;;;;;;;;;5104500;28;20035;-73
2023/04/27 09:06:07;;;;;;;21.60;10.18;;;;;;;;;;5101588;28;20459;-72
2023/04/27 09:08:46;;;;;;;24.77;11.27;;;;;;;;;;5101813;28;20086;-72
2023/04/27 09:11:28;;;;;;;19.98;10.32;;;;;;;;;;5102367;28;20031;-72
2023/04/27 09:13:54;;;;;;;24.08;10.65;;;;;;;;;;5081496;28;20082;-70
2023/04/27 09:16:23;;;;;;;16.85;10.18;;;;;;;;;;5068507;28;20039;-69
2023/04/27 09:18:49;;;;;;;19.00;10.57;;;;;;;;;;5072421;28;20465;-69
2023/04/27 09:21:29;;;;;;;20.70;10.10;;;;;;;;;;5056822;28;20128;-70
2023/04/27 09:23:55;;;;;;;21.58;11.13;;;;;;;;;;5066765;28;20558;-72
2023/04/27 09:26:26;;;;;;;24.05;10.70;;;;;;;;;;5067907;28;20062;-74
2023/04/27 09:28:56;;;;;;;24.15;11.55;;;;;;;;;;5064760;28;20032;-72
2023/04/27 09:31:30;;;;;;;22.63;10.95;;;;;;;;;;5065812;28;20040;-73
2023/04/27 09:33:56;;;;;;;29.85;11.70;;;;;;;;;;5062921;28;20036;-73
2023/04/27 09:36:22;;;;;;;22.60;11.50;;;;;;;;;;5091532;28;20032;-73
2023/04/27 09:38:48;;;;;;;21.95;11.10;;;;;;;;;;5102653;28;20031;-73
2023/04/27 09:41:14;;;;;;;25.20;11.48;;;;;;;;;;5082807;28;20040;-74
2023/04/27 09:43:43;;;;;;;21.65;10.68;;;;;;;;;;5087423;28;20488;-74
2023/04/27 09:46:08;;;;;;;19.98;10.30;;;;;;;;;;5088307;28;20831;-74
2023/04/27 09:48:34;;;;;;;22.83;11.70;;;;;;;;;;5066616;28;20066;-74
2023/04/27 09:50:59;;;;;;;25.98;11.00;;;;;;;;;;5067909;28;20066;-73
2023/04/27 09:53:48;;;;;;;20.63;10.70;;;;;;;;;;5068454;28;20070;-74
2023/04/27 09:56:52;;;;;;;25.20;11.75;;;;;;;;;;5068274;28;20036;-73
2023/04/27 09:59:47;;;;;;;19.88;10.30;;;;;;;;;;5068646;28;20035;-71
2023/04/27 10:02:15;;;;;;;24.38;11.50;;;;;;;;;;5070700;28;20039;-71
2023/04/27 10:05:00;;;;;;;25.73;11.82;;;;;;;;;;5074795;28;20979;-70
2023/04/27 10:07:26;;;;;;;22.58;11.23;;;;;;;;;;5078130;28;20040;-71
2023/04/27 10:09:52;;;;;;;20.67;11.13;;;;;;;;;;5067821;28;20064;-71
2023/04/27 10:12:42;;;;;;;28.02;12.15;;;;;;;;;;5052562;28;20059;-73
2023/04/27 10:15:12;;;;;;;23.35;11.55;;;;;;;;;;5086766;28;20074;-73
2023/04/27 10:17:45;;;;;;;27.77;11.27;;;;;;;;;;5059945;28;20051;-73
2023/04/27 10:20:10;;;;;;;21.42;10.80;;;;;;;;;;5078664;28;20028;-73
2023/04/27 10:22:40;;;;;;;19.17;10.98;;;;;;;;;;5066530;28;20023;-72
2023/04/27 10:25:24;;;;;;;24.88;11.27;;;;;;;;;;5057165;28;20047;-73
2023/04/27 10:27:52;;;;;;;;;;;;;;;;;;5064158;28;20112;-72
2023/04/27 10:30:19;;;;;;;22.55;11.63;;;;;;;;;;5074684;28;19916;-73
2023/04/27 10:32:56;;;;;;;23.75;11.82;;;;;;;;;;5067915;28;20659;-73
2023/04/27 10:35:33;;;;;;;23.10;11.15;;;;;;;;;;5067890;28;20032;-73
2023/04/27 10:38:16;;;;;;;24.10;11.88;;;;;;;;;;5067761;28;20058;-73
2023/04/27 10:40:53;;;;;;;25.70;11.85;;;;;;;;;;5046483;28;20025;-74
2023/04/27 10:43:26;;;;;;;21.85;11.20;;;;;;;;;;5047024;28;20078;-71
2023/04/27 10:45:52;;;;;;;26.38;12.25;;;;;;;;;;5068264;28;20048;-74
2023/04/27 10:48:18;;;;;;;27.67;12.35;;;;;;;;;;5077700;28;20035;-72
2023/04/27 10:50:44;;;;;;;27.10;12.27;;;;;;;;;;5062316;28;20070;-74
2023/04/27 10:53:10;;;;;;;26.75;11.75;;;;;;;;;;5077200;28;20097;-73
2023/04/27 10:55:36;;;;;;;22.20;11.90;;;;;;;;;;5055571;28;20557;-74
2023/04/27 10:59:30;;;;;;;23.02;12.20;;;;;;;;;;5102389;27;20216;-73
2023/04/27 11:01:55;;;;;;;22.60;12.52;;;;;;;;;;5103538;28;20039;-73
2023/04/27 11:04:20;;;;;;;24.65;11.60;;;;;;;;;;5092905;28;20085;-73
2023/04/27 11:06:46;;;;;;;24.83;12.07;;;;;;;;;;5088274;27;20036;-73
2023/04/27 11:09:13;;;;;;;23.20;11.80;;;;;;;;;;5094471;27;20032;-76
2023/04/27 11:11:43;;;;;;;27.42;12.27;;;;;;;;;;5094368;27;20079;-75
2023/04/27 11:14:08;;;;;;;18.60;10.10;;;;;;;;;;5082209;28;20028;-75
2023/04/27 11:16:34;;;;;;;22.83;10.77;;;;;;;;;;5084104;28;20498;-75
2023/04/27 11:19:06;;;;;;;20.63;10.40;;;;;;;;;;5083908;28;20052;-75
2023/04/27 11:21:31;;;;;;;20.08;9.80;;;;;;;;;;5088795;28;20032;-75
2023/04/27 11:24:03;;;;;;;22.08;9.68;;;;;;;;;;5099948;28;20043;-75
2023/04/27 11:26:28;;;;;;;22.15;10.18;;;;;;;;;;5108739;28;20462;-75
2023/04/27 11:28:58;;;;;;;18.23;10.30;;;;;;;;;;5117533;28;20581;-75
2023/04/27 11:31:24;;;;;;;22.55;10.02;;;;;;;;;;5103701;28;20496;-75
2023/04/27 11:33:50;;;;;;;21.38;9.20;;;;;;;;;;5103364;28;20047;-75
2023/04/27 11:36:20;;;;;;;22.17;10.82;;;;;;;;;;5104183;28;20032;-75
2023/04/27 11:38:46;;;;;;;19.77;10.20;;;;;;;;;;5099342;28;20044;-75
2023/04/27 11:41:11;;;;;;;21.65;10.32;;;;;;;;;;5097399;28;20039;-75
2023/04/27 11:43:48;;;;;;;21.63;10.15;;;;;;;;;;5092357;28;20028;-74
2023/04/27 11:46:13;;;;;;;17.70;10.00;;;;;;;;;;5057559;28;20043;-73
2023/04/27 11:48:39;;;;;;;21.42;10.50;;;;;;;;;;5090441;28;20024;-73
2023/04/27 11:51:06;;;;;;;22.30;11.30;;;;;;;;;;5069608;28;20119;-73
2023/04/27 11:53:34;;;;;;;20.45;10.70;;;;;;;;;;5083493;28;20040;-74
2023/04/27 11:56:04;;;;;;;21.45;9.85;;;;;;;;;;5082641;28;20039;-73
2023/04/27 11:58:32;;;;;;;24.83;10.98;;;;;;;;;;5083818;28;20063;-73
2023/04/27 12:00:58;;;;;;;25.08;12.15;;;;;;;;;;5083458;28;20034;-72
2023/04/27 12:03:24;;;;;;;27.40;11.07;;;;;;;;;;5086805;28;20028;-73
2023/04/27 12:05:50;;;;;;;21.58;10.13;;;;;;;;;;5084607;28;20524;-72
2023/04/27 12:08:16;;;;;;;18.38;9.10;;;;;;;;;;5085167;28;20076;-72
2023/04/27 12:10:42;;;;;;;22.38;11.52;;;;;;;;;;5069834;28;20680;-72
2023/04/27 12:13:07;;;;;;;19.85;9.75;;;;;;;;;;5070771;28;20043;-74
2023/04/27 12:15:33;;;;;;;18.38;9.20;;;;;;;;;;5075938;28;20059;-73
2023/04/27 12:17:58;;;;;;;19.75;11.25;;;;;;;;;;5084942;28;20035;-73
2023/04/27 12:20:24;;;;;;;19.65;10.18;;;;;;;;;;5080035;28;20044;-74
2023/04/27 12:22:50;;;;;;;20.45;11.50;;;;;;;;;;5076262;28;20055;-73
2023/04/27 12:25:16;;;;;;;22.95;12.00;;;;;;;;;;5080859;28;20066;-73
2023/04/27 12:27:42;;;;;;;20.23;11.50;;;;;;;;;;5082774;28;20172;-73
2023/04/27 12:30:08;;;;;;;21.25;10.80;;;;;;;;;;5082168;28;20036;-73
2023/04/27 12:32:33;;;;;;;18.38;8.35;;;;;;;;;;5071049;28;20056;-73
2023/04/27 12:34:59;;;;;;;20.85;10.70;;;;;;;;;;5082128;27;20036;-73
2023/04/27 12:37:24;;;;;;;21.42;9.70;;;;;;;;;;5071880;28;20711;-73
2023/04/27 12:39:50;;;;;;;18.23;9.65;;;;;;;;;;5071108;28;20122;-73
2023/04/27 12:42:18;;;;;;;17.20;9.88;;;;;;;;;;5078671;28;20039;-73
2023/04/27 12:44:43;;;;;;;20.80;11.10;;;;;;;;;;5073578;28;20035;-73
2023/04/27 12:47:09;;;;;;;22.95;12.18;;;;;;;;;;5084436;28;20035;-73
2023/04/27 12:49:35;;;;;;;18.83;10.15;;;;;;;;;;5087627;28;20015;-74
2023/04/27 12:52:00;;;;;;;19.60;10.55;;;;;;;;;;5074244;28;20208;-73
2023/04/27 12:54:26;;;;;;;18.50;9.57;;;;;;;;;;5073444;28;20671;-72
2023/04/27 12:56:51;;;;;;;22.20;10.18;;;;;;;;;;5069917;28;20044;-74
2023/04/27 12:59:16;;;;;;;24.83;11.30;;;;;;;;;;5071314;28;20067;-73
2023/04/27 13:01:42;;;;;;;23.40;11.90;;;;;;;;;;5071507;28;20047;-73
2023/04/27 13:04:07;;;;;;;20.42;11.73;;;;;;;;;;5070725;28;20085;-72
2023/04/27 13:06:33;;;;;;;21.70;10.98;;;;;;;;;;5073031;28;20985;-73
2023/04/27 13:08:58;;;;;;;21.05;10.43;;;;;;;;;;5068229;28;20050;-72
2023/04/27 13:11:25;;;;;;;20.58;11.00;;;;;;;;;;5069712;28;20071;-72
2023/04/27 13:13:50;;;;;;;17.33;10.77;;;;;;;;;;5067433;28;20027;-73
2023/04/27 13:16:17;;;;;;;17.05;9.20;;;;;;;;;;5071120;28;20028;-73
2023/04/27 13:18:48;;;;;;;21.73;10.70;;;;;;;;;;5059537;28;20047;-74
2023/04/27 13:21:13;;;;;;;21.08;10.77;;;;;;;;;;5062067;28;20067;-73
2023/04/27 13:23:39;;;;;;;19.70;11.38;;;;;;;;;;5072319;28;20040;-74
2023/04/27 13:26:05;;;;;;;21.73;10.50;;;;;;;;;;5085441;28;20024;-74
2023/04/27 13:28:31;;;;;;;20.77;10.98;;;;;;;;;;5068588;28;20046;-73
2023/04/27 13:30:57;;;;;;;25.88;11.88;;;;;;;;;;5083293;28;20377;-74
2023/04/27 13:33:22;;;;;;;22.30;11.05;;;;;;;;;;5087802;28;20027;-74
2023/04/27 13:35:48;;;;;;;18.67;9.20;;;;;;;;;;5062311;28;20081;-74
2023/04/27 13:38:13;;;;;;;17.95;9.80;;;;;;;;;;5070428;28;20047;-73
2023/04/27 13:40:38;;;;;;;20.50;10.25;;;;;;;;;;5096495;28;20039;-74
2023/04/27 13:43:04;;;;;;;21.60;10.88;;;;;;;;;;5093488;28;20664;-74
2023/04/27 13:45:29;;;;;;;21.77;10.73;;;;;;;;;;5075158;28;20043;-74
2023/04/27 13:47:55;;;;;;;21.05;10.20;;;;;;;;;;5077658;28;20032;-74
2023/04/27 13:50:21;;;;;;;16.33;9.88;;;;;;;;;;5086223;28;20067;-74
2023/04/27 13:52:46;;;;;;;26.02;11.10;;;;;;;;;;5081294;28;20056;-73
2023/04/27 13:55:12;;;;;;;18.27;10.05;;;;;;;;;;5076643;28;20012;-74
2023/04/27 13:57:37;;;;;;;19.85;10.45;;;;;;;;;;5068992;28;21345;-73
2023/04/27 14:00:08;;;;;;;17.48;11.30;;;;;;;;;;5074826;28;20043;-73
2023/04/27 14:02:33;;;;;;;16.60;11.52;;;;;;;;;;5086632;28;20101;-73
2023/04/27 14:04:59;;;;;;;19.83;11.73;;;;;;;;;;5086999;28;20032;-72
2023/04/27 14:07:24;;;;;;;18.27;11.15;;;;;;;;;;5084956;28;20055;-73
2023/04/27 14:09:50;;;;;;;19.88;11.65;;;;;;;;;;5090859;28;20086;-73
2023/04/27 14:12:15;;;;;;;18.75;12.05;;;;;;;;;;5097171;28;20032;-72
2023/04/27 14:14:41;;;;;;;20.48;11.73;;;;;;;;;;5092800;28;20032;-72
2023/04/27 14:17:06;;;;;;;22.42;12.38;;;;;;;;;;5084753;28;20031;-73
2023/04/27 14:19:32;;;;;;;19.30;11.70;;;;;;;;;;5085265;28;20400;-72
2023/04/27 14:21:58;;;;;;;26.08;12.10;;;;;;;;;;5083262;28;20398;-73
2023/04/27 14:24:24;;;;;;;19.63;11.13;;;;;;;;;;5084366;28;20048;-73
2023/04/27 14:26:50;;;;;;;20.67;12.48;;;;;;;;;;5087795;28;20047;-73
2023/04/27 14:29:18;;;;;;;23.70;11.60;;;;;;;;;;5104227;28;20603;-73
2023/04/27 14:31:44;;;;;;;18.73;11.60;;;;;;;;;;5104611;28;20035;-73
2023/04/27 14:34:10;;;;;;;22.83;11.18;;;;;;;;;;5093584;28;20062;-73
2023/04/27 14:36:36;;;;;;;20.85;10.65;;;;;;;;;;5086269;28;20525;-73
2023/04/27 14:39:01;;;;;;;18.67;10.48;;;;;;;;;;5068108;28;20109;-73
2023/04/27 14:41:27;;;;;;;19.23;10.68;;;;;;;;;;5070739;28;20067;-73
2023/04/27 14:43:53;;;;;;;21.10;12.20;;;;;;;;;;5074061;28;20504;-71
2023/04/27 14:46:19;;;;;;;24.00;12.02;;;;;;;;;;5079813;28;20524;-72
2023/04/27 14:48:45;;;;;;;20.88;11.38;;;;;;;;;;5082667;28;20071;-72
2023/04/27 14:51:12;;;;;;;21.60;10.85;;;;;;;;;;5079502;28;20131;-72